createdAt,value
2023-10-31T00:00:59.099Z,1157
2023-10-31T00:02:02.912Z,1157
2023-10-31T00:03:15.626Z,1155
2023-10-31T00:04:29.313Z,1154
2023-10-31T00:05:31.941Z,1157
2023-10-31T00:06:45.383Z,1154
2023-10-31T00:07:58.127Z,1156
2023-10-31T00:09:01.848Z,1154
2023-10-31T00:10:14.446Z,1155
2023-10-31T00:11:27.835Z,1151
2023-10-31T00:12:30.466Z,1150
2023-10-31T00:13:43.902Z,1147
2023-10-31T00:14:56.601Z,1147
2023-10-31T00:16:10.443Z,1146
2023-10-31T00:17:14.430Z,1143
2023-10-31T00:18:27.872Z,1143
2023-10-31T00:19:30.512Z,1143
2023-10-31T00:20:43.815Z,1141
2023-10-31T00:21:56.423Z,1141
2023-10-31T00:23:09.894Z,1141
2023-10-31T00:24:12.658Z,1141
2023-10-31T00:25:25.864Z,1138
2023-10-31T00:26:38.463Z,1134
2023-10-31T00:27:41.857Z,1135
2023-10-31T00:28:54.473Z,1135
2023-10-31T00:30:07.852Z,1132
2023-10-31T00:31:10.505Z,1129
2023-10-31T00:32:23.874Z,1128
2023-10-31T00:33:36.576Z,1126
2023-10-31T00:34:40.338Z,1124
2023-10-31T00:35:53.051Z,1124
2023-10-31T00:37:06.339Z,1123
2023-10-31T00:38:18.949Z,1120
2023-10-31T00:39:22.360Z,1119
2023-10-31T00:40:34.985Z,1114
2023-10-31T00:41:48.351Z,1110
2023-10-31T00:42:51.020Z,1107
2023-10-31T00:44:04.407Z,1106
2023-10-31T00:45:17.080Z,1106
2023-10-31T00:46:24.918Z,1107
2023-10-31T00:47:37.532Z,1102
2023-10-31T00:48:42.336Z,1100
2023-10-31T00:49:54.925Z,1098
2023-10-31T00:51:08.376Z,1096
2023-10-31T00:52:11.016Z,1095
2023-10-31T00:53:24.354Z,1094
2023-10-31T00:54:36.946Z,1092
2023-10-31T00:55:40.401Z,1093
2023-10-31T00:56:53.092Z,1087
2023-10-31T00:58:06.342Z,1087
2023-10-31T00:59:09.062Z,1082
2023-10-31T01:00:22.363Z,1081
2023-10-31T01:01:35.079Z,1081
2023-10-31T01:02:48.427Z,1079
2023-10-31T01:03:51.188Z,1075
2023-10-31T01:05:04.513Z,1075
2023-10-31T01:06:17.216Z,1073
2023-10-31T01:07:20.836Z,1074
2023-10-31T01:08:33.444Z,1075
2023-10-31T01:09:46.866Z,1075
2023-10-31T01:10:49.572Z,1072
2023-10-31T01:12:02.877Z,1072
2023-10-31T01:13:15.462Z,1069
2023-10-31T01:14:28.839Z,1067
2023-10-31T01:15:31.534Z,1067
2023-10-31T01:16:45.397Z,1068
2023-10-31T01:17:58.118Z,1062
2023-10-31T01:19:01.368Z,1062
2023-10-31T01:20:14.003Z,1060
2023-10-31T01:21:29.051Z,1061
2023-10-31T01:22:31.736Z,1059
2023-10-31T01:23:44.872Z,1060
2023-10-31T01:24:57.466Z,1057
2023-10-31T01:26:00.896Z,1057
2023-10-31T01:27:13.552Z,1056
2023-10-31T01:28:26.871Z,1059
2023-10-31T01:29:29.553Z,1058
2023-10-31T01:30:42.875Z,1057
2023-10-31T01:31:59.739Z,1059
2023-10-31T01:33:04.990Z,1059
2023-10-31T01:34:17.734Z,1059
2023-10-31T01:35:21.373Z,1055
2023-10-31T01:36:33.949Z,1058
2023-10-31T01:37:47.362Z,1059
2023-10-31T01:38:50.039Z,1056
2023-10-31T01:40:03.376Z,1057
2023-10-31T01:41:15.973Z,1055
2023-10-31T01:42:20.934Z,1055
2023-10-31T01:43:34.872Z,1057
2023-10-31T01:44:48.872Z,1058
2023-10-31T01:45:51.562Z,1057
2023-10-31T01:47:06.438Z,1055
2023-10-31T01:48:09.217Z,1056
2023-10-31T01:49:22.389Z,1058
2023-10-31T01:50:34.959Z,1058
2023-10-31T01:51:48.382Z,1059
2023-10-31T01:52:51.072Z,1061
2023-10-31T01:54:05.839Z,1063
2023-10-31T01:55:08.599Z,1064
2023-10-31T01:56:21.903Z,1065
2023-10-31T01:57:34.492Z,1068
2023-10-31T01:58:47.932Z,1067
2023-10-31T01:59:50.685Z,1067
2023-10-31T02:01:03.911Z,1068
2023-10-31T02:02:16.776Z,1068
2023-10-31T02:03:20.475Z,1067
2023-10-31T02:04:33.225Z,1066
2023-10-31T02:05:46.907Z,1064
2023-10-31T02:06:49.691Z,1065
2023-10-31T02:08:03.078Z,1062
2023-10-31T02:09:15.731Z,1060
2023-10-31T02:10:19.399Z,1061
2023-10-31T02:11:32.005Z,1062
2023-10-31T02:12:45.365Z,1060
2023-10-31T02:13:48.075Z,1060
2023-10-31T02:15:03.888Z,1059
2023-10-31T02:16:06.708Z,1061
2023-10-31T02:17:20.384Z,1062
2023-10-31T02:18:32.992Z,1062
2023-10-31T02:19:46.425Z,1065
2023-10-31T02:20:49.168Z,1064
2023-10-31T02:22:02.414Z,1065
2023-10-31T02:23:16.375Z,1064
2023-10-31T02:24:19.886Z,1065
2023-10-31T02:25:32.461Z,1063
2023-10-31T02:26:45.953Z,1063
2023-10-31T02:27:48.741Z,1065
2023-10-31T02:29:02.478Z,1063
2023-10-31T02:30:15.194Z,1065
2023-10-31T02:31:18.906Z,1063
2023-10-31T02:32:31.674Z,1062
2023-10-31T02:33:46.850Z,1064
2023-10-31T02:34:49.630Z,1061
2023-10-31T02:36:03.382Z,1059
2023-10-31T02:37:06.033Z,1061
2023-10-31T02:38:19.423Z,1057
2023-10-31T02:39:32.035Z,1055
2023-10-31T02:40:45.406Z,1052
2023-10-31T02:41:48.096Z,1049
2023-10-31T02:43:01.495Z,1053
2023-10-31T02:44:15.336Z,1052
2023-10-31T02:45:18.940Z,1052
2023-10-31T02:46:31.648Z,1052
2023-10-31T02:47:44.958Z,1054
2023-10-31T02:48:47.702Z,1051
2023-10-31T02:50:00.925Z,1052
2023-10-31T02:51:13.650Z,1052
2023-10-31T02:52:16.922Z,1054
2023-10-31T02:53:29.550Z,1055
2023-10-31T02:54:43.421Z,1056
2023-10-31T02:55:46.220Z,1056
2023-10-31T02:57:01.439Z,1060
2023-10-31T02:58:14.204Z,1060
2023-10-31T02:59:17.941Z,1060
2023-10-31T03:00:30.505Z,1059
2023-10-31T03:01:43.938Z,1057
2023-10-31T03:02:46.802Z,1058
2023-10-31T03:04:00.465Z,1056
2023-10-31T03:05:13.117Z,1057
2023-10-31T03:06:16.400Z,1056
2023-10-31T03:07:28.996Z,1056
2023-10-31T03:08:42.397Z,1058
2023-10-31T03:09:55.005Z,1058
2023-10-31T03:10:58.456Z,1054
2023-10-31T03:12:11.110Z,1054
2023-10-31T03:13:24.452Z,1052
2023-10-31T03:14:27.105Z,1053
2023-10-31T03:15:40.448Z,1051
2023-10-31T03:16:53.171Z,1050
2023-10-31T03:17:56.973Z,1050
2023-10-31T03:19:11.115Z,1047
2023-10-31T03:20:24.418Z,1047
2023-10-31T03:21:27.099Z,1046
2023-10-31T03:22:40.433Z,1046
2023-10-31T03:23:54.298Z,1047
2023-10-31T03:24:58.438Z,1046
2023-10-31T03:26:11.089Z,1046
2023-10-31T03:27:24.433Z,1045
2023-10-31T03:28:27.071Z,1046
2023-10-31T03:29:40.439Z,1044
2023-10-31T03:30:53.056Z,1043
2023-10-31T03:32:06.455Z,1040
2023-10-31T03:33:10.473Z,1040
2023-10-31T03:34:23.922Z,1040
2023-10-31T03:35:26.722Z,1038
2023-10-31T03:36:39.907Z,1036
2023-10-31T03:37:52.577Z,1034
2023-10-31T03:39:05.927Z,1032
2023-10-31T03:40:08.575Z,1033
2023-10-31T03:41:21.936Z,1031
2023-10-31T03:42:34.544Z,1028
2023-10-31T03:43:37.953Z,1031
2023-10-31T03:44:50.549Z,1030
2023-10-31T03:46:03.938Z,1029
2023-10-31T03:47:16.695Z,1028
2023-10-31T03:48:21.944Z,1031
2023-10-31T03:49:34.540Z,1032
2023-10-31T03:50:47.946Z,1030
2023-10-31T03:51:50.590Z,1029
2023-10-31T03:53:03.975Z,1031
2023-10-31T03:54:16.676Z,1030
2023-10-31T03:55:19.932Z,1030
2023-10-31T03:56:32.484Z,1031
2023-10-31T03:57:45.905Z,1033
2023-10-31T03:58:48.609Z,1033
2023-10-31T04:00:02.923Z,1034
2023-10-31T04:01:15.521Z,1031
2023-10-31T04:02:18.932Z,1031
2023-10-31T04:03:31.532Z,1031
2023-10-31T04:04:44.961Z,1032
2023-10-31T04:05:57.632Z,1029
2023-10-31T04:07:01.438Z,1029
2023-10-31T04:08:14.178Z,1027
2023-10-31T04:09:27.444Z,1026
2023-10-31T04:10:30.209Z,1024
2023-10-31T04:11:44.915Z,1024
2023-10-31T04:12:57.506Z,1020
2023-10-31T04:14:02.405Z,1021
2023-10-31T04:15:15.107Z,1021
2023-10-31T04:16:28.428Z,1022
2023-10-31T04:17:31.423Z,1021
2023-10-31T04:18:44.932Z,1021
2023-10-31T04:19:57.551Z,1019
2023-10-31T04:21:00.939Z,1019
2023-10-31T04:22:13.529Z,1018
2023-10-31T04:23:26.970Z,1020
2023-10-31T04:24:29.615Z,1015
2023-10-31T04:25:42.956Z,1013
2023-10-31T04:26:55.548Z,1014
2023-10-31T04:28:08.942Z,1016
2023-10-31T04:29:11.664Z,1015
2023-10-31T04:30:24.954Z,1011
2023-10-31T04:31:41.815Z,1011
2023-10-31T04:32:47.950Z,1011
2023-10-31T04:33:50.747Z,1012
2023-10-31T04:35:03.999Z,1014
2023-10-31T04:36:16.673Z,1015
2023-10-31T04:37:19.958Z,1014
2023-10-31T04:38:32.369Z,1017
2023-10-31T04:39:45.460Z,1017
2023-10-31T04:40:57.831Z,1017
2023-10-31T04:42:00.953Z,1016
2023-10-31T04:43:13.370Z,1016
2023-10-31T04:44:26.456Z,1018
2023-10-31T04:45:39.024Z,1021
2023-10-31T04:46:42.546Z,1020
2023-10-31T04:47:57.105Z,1020
2023-10-31T04:49:00.964Z,1024
2023-10-31T04:50:13.626Z,1024
2023-10-31T04:51:26.962Z,1027
2023-10-31T04:52:29.647Z,1027
2023-10-31T04:53:42.965Z,1028
2023-10-31T04:54:55.558Z,1029
2023-10-31T04:56:08.974Z,1031
2023-10-31T04:57:11.692Z,1028
2023-10-31T04:58:24.939Z,1029
2023-10-31T04:59:37.540Z,1031
2023-10-31T05:00:40.968Z,1033
2023-10-31T05:01:53.638Z,1033
2023-10-31T05:03:07.142Z,1033
2023-10-31T05:04:19.949Z,1036
2023-10-31T05:05:28.638Z,1038
2023-10-31T05:06:32.832Z,1040
2023-10-31T05:07:46.478Z,1042
2023-10-31T05:08:59.174Z,1043
2023-10-31T05:10:03.488Z,1041
2023-10-31T05:11:16.132Z,1042
2023-10-31T05:12:29.436Z,1043
2023-10-31T05:13:32.271Z,1042
2023-10-31T05:14:46.001Z,1039
2023-10-31T05:15:58.680Z,1040
2023-10-31T05:17:02.484Z,1039
2023-10-31T05:18:15.120Z,1040
2023-10-31T05:19:28.481Z,1041
2023-10-31T05:20:41.217Z,1041
2023-10-31T05:21:44.971Z,1040
2023-10-31T05:22:57.595Z,1042
2023-10-31T05:24:10.941Z,1042
2023-10-31T05:25:13.753Z,1042
2023-10-31T05:26:26.950Z,1044
2023-10-31T05:27:39.556Z,1050
2023-10-31T05:28:42.968Z,1060
2023-10-31T05:29:55.660Z,1063
2023-10-31T05:31:08.969Z,1081
2023-10-31T05:32:21.614Z,1089
2023-10-31T05:33:24.959Z,1100
2023-10-31T05:34:38.924Z,1113
2023-10-31T05:35:52.472Z,1120
2023-10-31T05:36:55.147Z,1119
2023-10-31T05:38:08.504Z,1118
2023-10-31T05:39:21.490Z,1122
2023-10-31T05:40:24.983Z,1127
2023-10-31T05:41:37.580Z,1134
2023-10-31T05:42:50.968Z,1139
2023-10-31T05:43:53.737Z,1145
2023-10-31T05:45:07.457Z,1148
2023-10-31T05:46:20.187Z,1152
2023-10-31T05:47:24.012Z,1159
2023-10-31T05:48:36.754Z,1169
2023-10-31T05:49:50.517Z,1188
2023-10-31T05:50:53.326Z,1218
2023-10-31T05:52:06.941Z,1226
2023-10-31T05:53:19.577Z,1234
2023-10-31T05:54:33.021Z,1247
2023-10-31T05:55:35.875Z,1260
2023-10-31T05:56:49.460Z,1268
2023-10-31T05:58:02.158Z,1263
2023-10-31T05:59:05.988Z,1268
2023-10-31T06:00:18.697Z,1269
2023-10-31T06:01:32.038Z,1273
2023-10-31T06:02:34.723Z,1288
2023-10-31T06:03:47.984Z,1299
2023-10-31T06:05:03.430Z,1327
2023-10-31T06:06:07.956Z,1366
2023-10-31T06:07:20.414Z,1409
2023-10-31T06:08:33.446Z,1440
2023-10-31T06:09:35.959Z,1462
2023-10-31T06:10:48.981Z,1470
2023-10-31T06:12:01.452Z,1467
2023-10-31T06:13:14.498Z,1467
2023-10-31T06:14:17.045Z,1466
2023-10-31T06:15:30.453Z,1471
2023-10-31T06:16:42.834Z,1472
2023-10-31T06:17:46.510Z,1471
2023-10-31T06:18:58.984Z,1477
2023-10-31T06:20:12.077Z,1485
2023-10-31T06:21:14.584Z,1492
2023-10-31T06:22:27.441Z,1497
2023-10-31T06:23:39.790Z,1509
2023-10-31T06:24:52.981Z,1522
2023-10-31T06:25:55.478Z,1540
2023-10-31T06:27:08.472Z,1551
2023-10-31T06:28:20.762Z,1565
2023-10-31T06:30:38.988Z,1580
2023-10-31T06:31:52.015Z,1588
2023-10-31T06:32:54.459Z,1599
2023-10-31T06:34:07.488Z,1613
2023-10-31T06:35:20.918Z,1626
2023-10-31T06:36:33.968Z,1636
2023-10-31T06:37:36.374Z,1633
2023-10-31T06:38:49.474Z,1646
2023-10-31T06:40:01.728Z,1657
2023-10-31T06:41:05.001Z,1664
2023-10-31T06:42:17.254Z,1680
2023-10-31T06:43:32.871Z,1682
2023-10-31T06:44:36.757Z,1614
2023-10-31T06:45:49.981Z,1523
2023-10-31T06:47:02.297Z,1381
2023-10-31T06:48:05.523Z,1095
2023-10-31T06:49:17.789Z,706
2023-10-31T06:50:31.047Z,669
2023-10-31T06:51:33.574Z,649
2023-10-31T06:52:46.467Z,605
2023-10-31T06:53:58.757Z,577
2023-10-31T06:55:11.961Z,521
2023-10-31T06:56:14.332Z,495
2023-10-31T06:57:27.470Z,490
2023-10-31T06:58:39.765Z,471
2023-10-31T06:59:53.024Z,463
2023-10-31T07:00:55.476Z,459
2023-10-31T07:02:08.568Z,456
2023-10-31T07:03:21.244Z,460
2023-10-31T07:04:24.632Z,458
2023-10-31T07:05:37.158Z,461
2023-10-31T07:06:50.470Z,464
2023-10-31T07:07:52.890Z,469
2023-10-31T07:09:05.985Z,476
2023-10-31T07:10:18.474Z,480
2023-10-31T07:11:31.458Z,487
2023-10-31T07:12:33.919Z,493
2023-10-31T07:13:47.055Z,498
2023-10-31T07:14:59.736Z,507
2023-10-31T07:16:12.971Z,514
2023-10-31T07:17:15.585Z,525
2023-10-31T07:18:29.013Z,532
2023-10-31T07:19:41.328Z,534
2023-10-31T07:20:44.500Z,542
2023-10-31T07:21:56.842Z,549
2023-10-31T07:23:10.007Z,557
2023-10-31T07:24:22.361Z,565
2023-10-31T07:25:25.480Z,572
2023-10-31T07:26:37.793Z,581
2023-10-31T07:27:50.999Z,587
2023-10-31T07:28:53.449Z,589
2023-10-31T07:30:06.523Z,592
2023-10-31T07:31:18.829Z,592
2023-10-31T07:32:32.222Z,592
2023-10-31T07:33:34.693Z,596
2023-10-31T07:34:48.036Z,600
2023-10-31T07:36:00.508Z,607
2023-10-31T07:37:03.527Z,605
2023-10-31T07:38:15.829Z,607
2023-10-31T07:39:30.537Z,611
2023-10-31T07:40:32.970Z,615
2023-10-31T07:41:46.026Z,619
2023-10-31T07:42:58.315Z,622
2023-10-31T07:44:11.556Z,627
2023-10-31T07:45:13.963Z,631
2023-10-31T07:46:27.049Z,632
2023-10-31T07:47:39.435Z,638
2023-10-31T07:48:52.536Z,642
2023-10-31T07:49:55.017Z,647
2023-10-31T07:51:07.997Z,648
2023-10-31T07:52:20.213Z,651
2023-10-31T07:53:23.620Z,656
2023-10-31T07:54:35.978Z,659
2023-10-31T07:55:50.574Z,664
2023-10-31T07:56:53.009Z,669
2023-10-31T07:58:06.008Z,674
2023-10-31T07:59:18.333Z,682
2023-10-31T08:00:31.513Z,685
2023-10-31T08:01:33.957Z,691
2023-10-31T08:02:47.177Z,694
2023-10-31T08:03:59.535Z,698
2023-10-31T08:05:13.172Z,704
2023-10-31T08:06:17.015Z,705
2023-10-31T08:07:29.989Z,709
2023-10-31T08:08:32.354Z,710
2023-10-31T08:09:45.492Z,713
2023-10-31T08:10:57.696Z,715
2023-10-31T08:12:10.495Z,714
2023-10-31T08:13:12.896Z,719
2023-10-31T08:14:26.690Z,720
2023-10-31T08:15:39.082Z,722
2023-10-31T08:16:52.084Z,727
2023-10-31T08:17:54.477Z,732
2023-10-31T08:19:07.514Z,736
2023-10-31T08:20:19.721Z,738
2023-10-31T08:21:23.037Z,742
2023-10-31T08:22:35.342Z,746
2023-10-31T08:23:48.523Z,751
2023-10-31T08:24:50.843Z,754
2023-10-31T08:26:13.576Z,758
2023-10-31T08:27:16.073Z,761
2023-10-31T08:28:29.058Z,768
2023-10-31T08:29:31.406Z,772
2023-10-31T08:30:44.554Z,777
2023-10-31T08:31:56.847Z,781
2023-10-31T08:33:11.961Z,785
2023-10-31T08:34:14.559Z,786
2023-10-31T08:35:27.577Z,787
2023-10-31T08:36:39.851Z,791
2023-10-31T08:37:43.027Z,792
2023-10-31T08:38:55.240Z,796
2023-10-31T08:40:08.029Z,801
2023-10-31T08:41:10.423Z,806
2023-10-31T08:42:23.565Z,808
2023-10-31T08:43:35.708Z,817
2023-10-31T08:44:48.546Z,822
2023-10-31T08:45:50.889Z,824
2023-10-31T08:47:04.052Z,824
2023-10-31T08:48:16.259Z,825
2023-10-31T08:49:29.019Z,830
2023-10-31T08:50:31.357Z,834
2023-10-31T08:51:44.517Z,836
2023-10-31T08:52:56.983Z,837
2023-10-31T08:54:00.049Z,838
2023-10-31T08:55:12.242Z,840
2023-10-31T08:56:25.083Z,843
2023-10-31T08:57:37.320Z,846
2023-10-31T08:58:40.514Z,849
2023-10-31T08:59:52.694Z,849
2023-10-31T09:01:05.555Z,851
2023-10-31T09:02:17.876Z,850
2023-10-31T09:03:21.142Z,855
2023-10-31T09:04:33.337Z,855
2023-10-31T09:05:46.029Z,855
2023-10-31T09:06:58.196Z,859
2023-10-31T09:08:01.567Z,862
2023-10-31T09:09:13.762Z,864
2023-10-31T09:10:26.539Z,869
2023-10-31T09:11:28.862Z,870
2023-10-31T09:12:42.044Z,874
2023-10-31T09:13:54.304Z,875
2023-10-31T09:15:07.069Z,879
2023-10-31T09:16:09.344Z,883
2023-10-31T09:17:22.614Z,888
2023-10-31T09:18:34.937Z,890
2023-10-31T09:19:48.029Z,894
2023-10-31T09:20:50.336Z,893
2023-10-31T09:22:03.048Z,894
2023-10-31T09:23:15.266Z,895
2023-10-31T09:24:20.069Z,895
2023-10-31T09:25:32.271Z,900
2023-10-31T09:26:45.074Z,901
2023-10-31T09:27:47.375Z,901
2023-10-31T09:29:00.679Z,901
2023-10-31T09:30:12.745Z,904
2023-10-31T09:31:25.578Z,907
2023-10-31T09:32:27.925Z,911
2023-10-31T09:33:41.129Z,914
2023-10-31T09:34:53.350Z,918
2023-10-31T09:36:06.043Z,918
2023-10-31T09:37:08.290Z,920
2023-10-31T09:38:21.105Z,923
2023-10-31T09:39:33.332Z,924
2023-10-31T09:40:46.093Z,927
2023-10-31T09:41:48.304Z,930
2023-10-31T09:43:02.082Z,934
2023-10-31T09:44:14.365Z,936
2023-10-31T09:45:17.637Z,937
2023-10-31T09:46:29.766Z,940
2023-10-31T09:47:42.693Z,940
2023-10-31T09:48:54.821Z,943
2023-10-31T09:49:58.112Z,946
2023-10-31T09:51:10.326Z,952
2023-10-31T09:52:23.058Z,953
2023-10-31T09:53:25.351Z,958
2023-10-31T09:54:38.588Z,958
2023-10-31T09:55:50.781Z,961
2023-10-31T09:57:03.569Z,964
2023-10-31T09:58:05.828Z,963
2023-10-31T09:59:18.600Z,963
2023-10-31T10:00:30.689Z,965
2023-10-31T10:01:43.560Z,967
2023-10-31T10:02:46.028Z,969
2023-10-31T10:03:59.155Z,969
2023-10-31T10:05:11.393Z,972
2023-10-31T10:06:24.575Z,974
2023-10-31T10:07:26.826Z,976
2023-10-31T10:08:39.616Z,977
2023-10-31T10:09:51.745Z,979
2023-10-31T10:10:54.566Z,977
2023-10-31T10:12:06.700Z,980
2023-10-31T10:13:19.581Z,981
2023-10-31T10:14:31.708Z,981
2023-10-31T10:15:34.578Z,985
2023-10-31T10:16:46.740Z,989
2023-10-31T10:17:59.625Z,994
2023-10-31T10:19:11.754Z,999
2023-10-31T10:20:14.606Z,1002
2023-10-31T10:21:26.900Z,1002
2023-10-31T10:22:39.971Z,1002
2023-10-31T10:23:42.458Z,1003
2023-10-31T10:24:55.567Z,1005
2023-10-31T10:26:07.728Z,1011
2023-10-31T10:27:22.011Z,1018
2023-10-31T10:28:24.598Z,1020
2023-10-31T10:29:37.609Z,1027
2023-10-31T10:30:49.710Z,1027
2023-10-31T10:31:53.142Z,1033
2023-10-31T10:33:05.378Z,1031
2023-10-31T10:34:18.278Z,1034
2023-10-31T10:35:30.474Z,1032
2023-10-31T10:36:33.572Z,1033
2023-10-31T10:37:45.674Z,1033
2023-10-31T10:38:58.587Z,1034
2023-10-31T10:40:00.837Z,1033
2023-10-31T10:41:13.615Z,1033
2023-10-31T10:42:25.819Z,1038
2023-10-31T10:43:38.552Z,1039
2023-10-31T10:44:40.786Z,1039
2023-10-31T10:45:53.616Z,1041
2023-10-31T10:47:06.132Z,1045
2023-10-31T10:48:19.137Z,1048
2023-10-31T10:49:21.501Z,1051
2023-10-31T10:50:34.609Z,1054
2023-10-31T10:51:46.830Z,1057
2023-10-31T10:52:49.652Z,1061
2023-10-31T10:54:01.771Z,1062
2023-10-31T10:55:15.078Z,1065
2023-10-31T10:56:27.196Z,1069
2023-10-31T10:57:30.076Z,1073
2023-10-31T10:58:42.178Z,1074
2023-10-31T10:59:55.105Z,1078
2023-10-31T11:01:07.220Z,1077
2023-10-31T11:02:10.180Z,1078
2023-10-31T11:03:22.457Z,1078
2023-10-31T11:04:35.608Z,1078
2023-10-31T11:05:37.909Z,1080
2023-10-31T11:06:51.072Z,1081
2023-10-31T11:08:03.154Z,1082
2023-10-31T11:09:16.110Z,1081
2023-10-31T11:10:18.306Z,1082
2023-10-31T11:11:31.160Z,1080
2023-10-31T11:12:43.231Z,1079
2023-10-31T11:13:56.144Z,1079
2023-10-31T11:14:58.352Z,1077
2023-10-31T11:16:11.145Z,1073
2023-10-31T11:17:23.324Z,1070
2023-10-31T11:18:38.130Z,1069
2023-10-31T11:19:40.324Z,1068
2023-10-31T11:20:53.101Z,1068
2023-10-31T11:22:05.216Z,1064
2023-10-31T11:23:08.294Z,1061
2023-10-31T11:24:20.537Z,1059
2023-10-31T11:25:34.996Z,1055
2023-10-31T11:26:38.537Z,1053
2023-10-31T11:27:51.574Z,1049
2023-10-31T11:29:03.734Z,1044
2023-10-31T11:30:07.109Z,1042
2023-10-31T11:31:19.255Z,1037
2023-10-31T11:32:32.178Z,1034
2023-10-31T11:33:44.378Z,1029
2023-10-31T11:34:47.573Z,1028
2023-10-31T11:35:59.633Z,1025
2023-10-31T11:37:12.623Z,1024
2023-10-31T11:38:14.919Z,1020
2023-10-31T11:39:28.110Z,1015
2023-10-31T11:40:40.281Z,1015
2023-10-31T11:41:53.114Z,1014
2023-10-31T11:42:55.431Z,1014
2023-10-31T11:44:08.133Z,1012
2023-10-31T11:45:20.437Z,1008
2023-10-31T11:46:23.696Z,1006
2023-10-31T11:47:35.876Z,1003
2023-10-31T11:48:48.602Z,1002
2023-10-31T11:50:00.852Z,1000
2023-10-31T11:51:04.150Z,997
2023-10-31T11:52:16.274Z,992
2023-10-31T11:53:30.651Z,991
2023-10-31T11:54:32.967Z,985
2023-10-31T11:55:45.638Z,980
2023-10-31T11:56:57.754Z,980
2023-10-31T11:58:10.648Z,979
2023-10-31T11:59:12.911Z,974
2023-10-31T12:00:25.628Z,970
2023-10-31T12:01:37.754Z,964
2023-10-31T12:02:40.730Z,961
2023-10-31T12:03:53.101Z,958
2023-10-31T12:05:06.146Z,954
2023-10-31T12:06:18.300Z,951
2023-10-31T12:07:21.141Z,950
2023-10-31T12:08:33.339Z,946
2023-10-31T12:09:46.607Z,944
2023-10-31T12:10:48.824Z,943
2023-10-31T12:12:01.629Z,944
2023-10-31T12:13:13.859Z,939
2023-10-31T12:14:26.621Z,937
2023-10-31T12:15:28.922Z,936
2023-10-31T12:16:41.609Z,934
2023-10-31T12:17:53.719Z,932
2023-10-31T12:19:07.166Z,939
2023-10-31T12:20:09.536Z,943
2023-10-31T12:21:24.109Z,943
2023-10-31T12:22:26.389Z,946
2023-10-31T12:23:39.619Z,946
2023-10-31T12:24:51.699Z,949
2023-10-31T12:26:04.633Z,951
2023-10-31T12:27:07.046Z,951
2023-10-31T12:28:20.156Z,955
2023-10-31T12:29:32.292Z,955
2023-10-31T12:30:35.137Z,954
2023-10-31T12:31:47.307Z,953
2023-10-31T12:33:00.662Z,958
2023-10-31T12:34:03.873Z,960
2023-10-31T12:35:17.688Z,961
2023-10-31T12:36:29.852Z,966
2023-10-31T12:37:42.605Z,966
2023-10-31T12:38:44.805Z,965
2023-10-31T12:39:57.604Z,966
2023-10-31T12:41:09.690Z,967
2023-10-31T12:42:12.624Z,969
2023-10-31T12:43:24.736Z,970
2023-10-31T12:44:37.708Z,973
2023-10-31T12:45:50.007Z,974
2023-10-31T12:48:21.340Z,978
2023-10-31T12:49:13.818Z,982
2023-10-31T12:50:26.856Z,984
2023-10-31T12:51:29.182Z,985
2023-10-31T12:52:42.269Z,985
2023-10-31T12:53:54.318Z,987
2023-10-31T12:55:07.287Z,988
2023-10-31T12:56:09.543Z,988
2023-10-31T12:57:22.268Z,990
2023-10-31T12:58:34.465Z,989
2023-10-31T12:59:47.269Z,987
2023-10-31T13:00:49.540Z,984
2023-10-31T13:02:02.495Z,987
2023-10-31T13:03:14.922Z,989
2023-10-31T13:04:18.310Z,989
2023-10-31T13:05:30.608Z,995
2023-10-31T13:06:43.787Z,997
2023-10-31T13:07:55.820Z,999
2023-10-31T13:08:58.755Z,1001
2023-10-31T13:10:10.963Z,1007
2023-10-31T13:11:23.869Z,1009
2023-10-31T13:12:26.130Z,1010
2023-10-31T13:13:39.258Z,1011
2023-10-31T13:14:51.500Z,1017
2023-10-31T13:16:04.320Z,1025
2023-10-31T13:17:06.790Z,1030
2023-10-31T13:18:19.778Z,1035
2023-10-31T13:19:31.967Z,1038
2023-10-31T13:20:35.768Z,1039
2023-10-31T13:21:47.873Z,1043
2023-10-31T13:23:01.171Z,1052
2023-10-31T13:24:03.661Z,1058
2023-10-31T13:25:16.257Z,1065
2023-10-31T13:26:28.376Z,1070
2023-10-31T13:27:41.304Z,1075
2023-10-31T13:28:43.578Z,1077
2023-10-31T13:29:56.263Z,1080
2023-10-31T13:31:08.347Z,1084
2023-10-31T13:32:21.276Z,1087
2023-10-31T13:33:23.613Z,1089
2023-10-31T13:34:36.831Z,1091
2023-10-31T13:35:49.003Z,1096
2023-10-31T13:36:54.134Z,1102
2023-10-31T13:38:07.182Z,1107
2023-10-31T13:39:20.308Z,1109
2023-10-31T13:40:22.487Z,1112
2023-10-31T13:41:35.309Z,1117
2023-10-31T13:42:47.211Z,1120
2023-10-31T13:43:59.826Z,1122
2023-10-31T13:45:03.288Z,1124
2023-10-31T13:46:17.820Z,1127
2023-10-31T13:47:20.243Z,1132
2023-10-31T13:48:33.282Z,1138
2023-10-31T13:49:45.379Z,1145
2023-10-31T13:50:58.257Z,1152
2023-10-31T13:52:00.455Z,1158
2023-10-31T13:53:13.343Z,1166
2023-10-31T13:54:25.426Z,1167
2023-10-31T13:55:28.296Z,1170
2023-10-31T13:56:40.684Z,1171
2023-10-31T13:57:53.810Z,1170
2023-10-31T13:59:05.909Z,1169
2023-10-31T14:00:09.272Z,1167
2023-10-31T14:01:21.413Z,1169
2023-10-31T14:02:36.351Z,1166
2023-10-31T14:03:39.601Z,1163
2023-10-31T14:04:52.883Z,1164
2023-10-31T14:06:05.120Z,1160
2023-10-31T14:07:08.333Z,1163
2023-10-31T14:08:21.592Z,1162
2023-10-31T14:09:34.786Z,1163
2023-10-31T14:10:37.025Z,1164
2023-10-31T14:11:49.791Z,1163
2023-10-31T14:13:01.833Z,1166
2023-10-31T14:14:14.946Z,1166
2023-10-31T14:15:17.110Z,1170
2023-10-31T14:16:29.795Z,1169
2023-10-31T14:17:41.949Z,1166
2023-10-31T14:18:45.320Z,1169
2023-10-31T14:19:57.372Z,1168
2023-10-31T14:21:10.298Z,1171
2023-10-31T14:22:22.381Z,1174
2023-10-31T14:23:25.311Z,1179
2023-10-31T14:24:37.463Z,1180
2023-10-31T14:25:50.306Z,1181
2023-10-31T14:26:52.520Z,1181
2023-10-31T14:29:31.786Z,1185
2023-10-31T14:30:24.185Z,1186
2023-10-31T14:31:36.813Z,1189
2023-10-31T14:32:48.939Z,1188
2023-10-31T14:33:51.801Z,1190
2023-10-31T14:35:03.834Z,1192
2023-10-31T14:36:16.808Z,1193
2023-10-31T14:37:29.185Z,1195
2023-10-31T14:38:33.324Z,1198
2023-10-31T14:39:45.424Z,1200
2023-10-31T14:40:58.311Z,1202
2023-10-31T14:42:00.533Z,1205
2023-10-31T14:43:13.341Z,1205
2023-10-31T14:44:25.533Z,1205
2023-10-31T14:45:38.277Z,1208
2023-10-31T14:46:40.559Z,1213
2023-10-31T14:47:53.327Z,1215
2023-10-31T14:49:05.720Z,1217
2023-10-31T14:50:18.355Z,1220
2023-10-31T14:51:20.513Z,1221
2023-10-31T14:52:33.289Z,1221
2023-10-31T14:53:45.408Z,1224
2023-10-31T14:54:48.297Z,1224
2023-10-31T14:56:00.343Z,1226
2023-10-31T14:57:13.294Z,1227
2023-10-31T14:58:25.301Z,1230
2023-10-31T14:59:28.306Z,1231
2023-10-31T15:00:40.495Z,1231
2023-10-31T15:01:53.320Z,1232
2023-10-31T15:03:05.390Z,1236
2023-10-31T15:04:08.414Z,1240
2023-10-31T15:05:20.466Z,1245
2023-10-31T15:06:33.290Z,1246
2023-10-31T15:07:35.468Z,1252
2023-10-31T15:08:48.303Z,1261
2023-10-31T15:10:00.321Z,1270
2023-10-31T15:11:13.333Z,1277
2023-10-31T15:12:15.568Z,1281
2023-10-31T15:13:28.340Z,1287
2023-10-31T15:14:40.575Z,1291
2023-10-31T15:15:53.342Z,1298
2023-10-31T15:16:55.612Z,1303
2023-10-31T15:18:08.414Z,1304
2023-10-31T15:19:20.555Z,1306
2023-10-31T15:20:33.335Z,1306
2023-10-31T15:21:38.302Z,1306
2023-10-31T15:22:51.321Z,1306
2023-10-31T15:23:54.875Z,1306
2023-10-31T15:25:09.850Z,1311
2023-10-31T15:26:12.036Z,1310
2023-10-31T15:27:24.822Z,1311
2023-10-31T15:28:37.149Z,1314
2023-10-31T15:29:49.841Z,1313
2023-10-31T15:30:52.112Z,1314
2023-10-31T15:32:04.825Z,1319
2023-10-31T15:33:17.088Z,1320
2023-10-31T15:34:29.809Z,1323
2023-10-31T15:35:32.081Z,1324
2023-10-31T15:36:44.861Z,1324
2023-10-31T15:37:56.986Z,1326
2023-10-31T15:39:09.809Z,1332
2023-10-31T15:40:12.078Z,1333
2023-10-31T15:41:24.873Z,1335
2023-10-31T15:42:36.972Z,1336
2023-10-31T15:43:40.326Z,1339